createdAt,value
2022-10-26T00:04:15.940Z,97136.84
2022-10-26T00:09:18.467Z,97123.72
2022-10-26T00:14:22.396Z,97079.00
2022-10-26T00:19:25.082Z,97036.94
2022-10-26T00:24:27.661Z,96986.09
2022-10-26T00:29:31.685Z,96969.50
2022-10-26T00:34:34.281Z,96899.25
2022-10-26T00:39:36.818Z,96932.69
2022-10-26T00:45:02.065Z,96965.16
2022-10-26T00:50:07.757Z,96867.69
2022-10-26T00:55:10.426Z,96842.31
2022-10-26T01:00:14.939Z,96840.66
2022-10-26T01:05:18.418Z,96813.50
2022-10-26T01:10:21.682Z,96788.94
2022-10-26T01:15:31.096Z,96750.38
2022-10-26T01:21:05.892Z,96740.72
2022-10-26T01:26:33.802Z,96724.16
2022-10-26T01:31:41.702Z,96680.31
2022-10-26T01:36:47.308Z,96676.06
2022-10-26T01:41:51.766Z,96675.19
2022-10-26T01:46:56.533Z,96637.50
2022-10-26T01:51:59.083Z,96610.31
2022-10-26T01:57:03.703Z,96554.19
2022-10-26T02:02:34.654Z,96544.53
2022-10-26T02:07:41.746Z,96546.38
2022-10-26T02:12:49.167Z,96494.59
2022-10-26T02:17:58.188Z,96457.75
2022-10-26T02:23:02.932Z,96438.53
2022-10-26T02:28:07.816Z,96425.41
2022-10-26T02:33:13.788Z,96381.50
2022-10-26T02:38:19.595Z,96364.00
2022-10-26T02:43:23.206Z,96339.53
2022-10-26T02:48:27.165Z,96286.81
2022-10-26T02:53:32.333Z,96265.72
2022-10-26T02:58:38.108Z,96240.41
2022-10-26T03:03:42.104Z,96202.59
2022-10-26T03:08:44.698Z,96162.16
2022-10-26T03:13:47.279Z,96148.22
2022-10-26T03:18:51.175Z,96135.84
2022-10-26T03:23:53.706Z,96105.09
2022-10-26T03:28:56.251Z,96080.56
2022-10-26T03:34:00.130Z,96017.22
2022-10-26T03:39:02.860Z,96026.16
2022-10-26T03:44:05.784Z,96020.06
2022-10-26T03:49:09.662Z,96004.28
2022-10-26T03:54:12.211Z,95960.34
2022-10-26T03:59:14.765Z,95920.00
2022-10-26T04:04:18.714Z,95901.63
2022-10-26T04:09:21.439Z,95876.13
2022-10-26T04:14:24.057Z,95853.25
2022-10-26T04:19:27.948Z,95796.16
2022-10-26T04:24:30.498Z,95789.91
2022-10-26T04:29:33.063Z,95760.16
2022-10-26T04:34:36.947Z,95734.72
2022-10-26T04:39:39.503Z,95698.66
2022-10-26T04:44:42.044Z,95876.63
2022-10-26T04:49:45.943Z,95784.38
2022-10-26T04:54:48.463Z,95694.03
2022-10-26T04:59:51.007Z,95629.09
2022-10-26T05:04:54.888Z,95637.03
2022-10-26T05:09:57.443Z,95593.88
2022-10-26T05:15:00.303Z,95588.63
2022-10-26T05:20:06.153Z,95556.06
2022-10-26T05:25:09.535Z,95522.53
2022-10-26T05:30:12.628Z,95521.72
2022-10-26T05:35:16.867Z,95507.47
2022-10-26T05:40:19.579Z,95513.66
2022-10-26T05:45:22.324Z,95499.72
2022-10-26T05:50:26.361Z,95478.59
2022-10-26T05:55:29.663Z,95463.75
2022-10-26T06:00:32.948Z,95446.97
2022-10-26T06:05:42.521Z,95451.50
2022-10-26T06:10:45.558Z,95418.03
2022-10-26T06:15:58.310Z,95394.31
2022-10-26T06:21:11.560Z,95380.16
2022-10-26T06:26:20.657Z,95322.13
2022-10-26T06:31:23.257Z,95281.69
2022-10-26T06:36:28.973Z,95197.91
2022-10-26T06:41:33.513Z,95125.88
2022-10-26T06:46:40.351Z,95031.34
2022-10-26T06:51:48.131Z,94908.53
2022-10-26T06:56:51.032Z,94641.91
2022-10-26T07:01:53.625Z,94701.38
2022-10-26T07:06:58.068Z,94694.91
2022-10-26T07:12:00.720Z,94429.88
2022-10-26T07:17:03.314Z,94519.19
2022-10-26T07:22:07.242Z,94430.25
2022-10-26T07:27:09.819Z,94415.31
2022-10-26T07:32:12.383Z,94362.19
2022-10-26T07:37:16.254Z,94270.84
2022-10-26T07:42:18.790Z,94176.47
2022-10-26T07:47:21.326Z,94235.22
2022-10-26T07:52:25.268Z,94200.66
2022-10-26T07:57:27.791Z,94264.00
2022-10-26T08:02:30.484Z,94300.53
2022-10-26T08:07:34.351Z,94309.13
2022-10-26T08:12:37.011Z,94407.16
2022-10-26T08:17:39.587Z,94468.75
2022-10-26T08:22:43.472Z,94418.03
2022-10-26T08:27:46.008Z,94495.66
2022-10-26T08:32:48.938Z,94532.91
2022-10-26T08:37:53.163Z,94666.19
2022-10-26T08:42:59.300Z,94675.88
2022-10-26T08:48:03.056Z,94727.56
2022-10-26T08:53:09.838Z,94850.38
2022-10-26T08:58:16.990Z,94956.50
2022-10-26T09:03:20.076Z,95022.13
2022-10-26T09:08:30.869Z,95141.38
2022-10-26T09:13:41.589Z,95200.81
2022-10-26T09:18:50.480Z,95169.69
2022-10-26T09:24:00.374Z,95066.72
2022-10-26T09:29:04.631Z,94887.63
2022-10-26T09:34:08.633Z,94538.13
2022-10-26T09:39:17.120Z,94051.66
2022-10-26T09:44:26.022Z,93570.34
2022-10-26T09:49:34.316Z,93163.91
2022-10-26T09:54:38.273Z,92930.97
2022-10-26T09:59:42.037Z,92761.25
2022-10-26T10:04:48.033Z,92746.13
2022-10-26T10:10:08.047Z,92691.56
2022-10-26T10:15:18.912Z,92771.88
2022-10-26T10:20:23.804Z,92867.78
2022-10-26T10:25:36.008Z,92986.44
2022-10-26T10:30:39.216Z,93053.34
2022-10-26T10:35:49.607Z,93091.16
2022-10-26T10:40:56.442Z,93166.38
2022-10-26T10:45:59.938Z,93435.03
2022-10-26T10:51:12.256Z,93686.16
2022-10-26T10:56:33.120Z,94093.38
2022-10-26T11:01:40.675Z,94362.72
2022-10-26T11:06:44.757Z,94597.78
2022-10-26T11:11:50.199Z,95042.66
2022-10-26T11:16:57.429Z,95282.31
2022-10-26T11:22:00.211Z,95540.31
2022-10-26T11:27:10.119Z,95841.47
2022-10-26T11:32:16.607Z,96079.34
2022-10-26T11:37:20.772Z,96384.06
2022-10-26T11:42:28.890Z,96620.94
2022-10-26T11:47:36.530Z,96951.78
2022-10-26T11:52:42.096Z,97280.84
2022-10-26T11:57:46.985Z,97520.34
2022-10-26T12:02:52.120Z,97721.03
2022-10-26T12:07:56.761Z,97556.00
2022-10-26T12:13:08.330Z,97505.00
2022-10-26T12:18:16.157Z,97543.56
2022-10-26T12:23:28.194Z,97605.81
2022-10-26T12:28:42.994Z,97210.13
2022-10-26T12:33:51.096Z,97086.88
2022-10-26T12:38:59.329Z,97126.84
2022-10-26T12:44:32.997Z,96965.19
2022-10-26T12:50:01.056Z,97039.91
2022-10-26T12:55:17.762Z,97160.50
2022-10-26T13:00:22.998Z,97254.78
2022-10-26T13:05:43.580Z,97361.31
2022-10-26T13:11:01.271Z,97502.63
2022-10-26T13:16:04.073Z,97648.34
2022-10-26T13:21:11.463Z,97747.28
2022-10-26T13:26:15.583Z,97804.47
2022-10-26T13:31:55.439Z,97846.19
2022-10-26T13:37:08.220Z,97949.56
2022-10-26T13:42:16.032Z,98001.50
2022-10-26T13:47:25.328Z,98122.19
2022-10-26T13:52:31.400Z,98160.59
2022-10-26T13:57:37.064Z,98175.88
2022-10-26T14:02:42.860Z,98186.66
2022-10-26T14:07:52.590Z,98221.53
2022-10-26T14:12:58.999Z,98241.28
2022-10-26T14:18:02.951Z,98245.91
2022-10-26T14:23:06.895Z,98253.25
2022-10-26T14:28:22.426Z,98254.16
2022-10-26T14:33:28.822Z,98242.59
2022-10-26T14:38:33.082Z,98224.78
2022-10-26T14:43:35.716Z,98201.00
2022-10-26T14:48:40.374Z,98169.09
2022-10-26T14:53:50.167Z,98126.41
2022-10-26T14:58:54.251Z,98106.44
2022-10-26T15:03:58.362Z,98062.13
2022-10-26T15:09:04.594Z,98036.59
2022-10-26T15:14:12.874Z,97997.66
2022-10-26T15:19:20.059Z,97936.50
2022-10-26T15:24:34.503Z,97893.28
2022-10-26T15:29:42.743Z,97842.03
2022-10-26T15:34:49.614Z,97756.16
2022-10-26T15:39:53.583Z,97696.91
2022-10-26T15:44:56.342Z,97639.72
2022-10-26T15:49:58.877Z,97569.88
2022-10-26T15:55:02.776Z,97510.13
2022-10-26T16:00:07.335Z,97455.56
2022-10-26T16:05:12.154Z,97421.38
2022-10-26T16:10:19.798Z,97382.75
2022-10-26T16:15:24.364Z,97310.28
2022-10-26T16:20:27.554Z,97297.47
2022-10-26T16:25:31.547Z,97273.06
2022-10-26T16:30:36.807Z,97239.69
2022-10-26T16:35:39.506Z,97241.81
2022-10-26T16:40:44.994Z,97219.94
2022-10-26T16:45:47.555Z,97191.81
2022-10-26T16:50:50.198Z,97167.22
2022-10-26T16:55:54.106Z,97201.09
2022-10-26T17:00:56.669Z,97250.66
2022-10-26T17:06:00.431Z,97293.44
2022-10-26T17:11:05.924Z,97321.22
2022-10-26T17:16:11.249Z,97351.53
2022-10-26T17:21:15.488Z,97375.56
2022-10-26T17:26:19.383Z,97407.69
2022-10-26T17:31:21.995Z,97457.47
2022-10-26T17:36:25.641Z,97549.44
2022-10-26T17:41:30.087Z,97670.81
2022-10-26T17:46:33.898Z,97850.50
2022-10-26T17:51:36.483Z,97990.22
2022-10-26T17:56:40.384Z,98226.34
2022-10-26T18:01:44.131Z,98389.91
2022-10-26T18:06:46.995Z,98447.34
2022-10-26T18:11:53.500Z,98506.63
2022-10-26T18:16:58.374Z,98538.47
2022-10-26T18:22:00.990Z,98564.13
2022-10-26T18:27:04.983Z,98557.94
2022-10-26T18:32:07.580Z,98625.09
2022-10-26T18:37:10.271Z,98608.31
2022-10-26T18:42:14.577Z,98591.56
2022-10-26T18:47:17.155Z,98537.66
2022-10-26T18:52:19.716Z,98527.06
2022-10-26T18:57:26.872Z,98508.56
2022-10-26T19:02:29.540Z,98450.31
2022-10-26T19:07:32.118Z,98446.81
2022-10-26T19:12:36.055Z,98422.97
2022-10-26T19:17:38.686Z,98390.31
2022-10-26T19:22:41.271Z,98370.06
2022-10-26T19:27:47.364Z,98315.38
2022-10-26T19:32:50.107Z,98317.16
2022-10-26T19:37:52.843Z,98291.59
2022-10-26T19:42:56.815Z,98272.16
2022-10-26T19:47:59.406Z,98285.44
2022-10-26T19:53:03.397Z,98258.06
2022-10-26T19:58:07.306Z,98217.47
2022-10-26T20:03:12.136Z,98228.16
2022-10-26T20:08:14.747Z,98197.25
2022-10-26T20:13:18.659Z,98150.50
2022-10-26T20:18:21.413Z,98154.97
2022-10-26T20:23:24.164Z,98154.13
2022-10-26T20:28:28.063Z,98140.00
2022-10-26T20:33:30.625Z,98133.03
2022-10-26T20:38:33.721Z,98103.00
2022-10-26T20:43:39.850Z,98066.00
2022-10-26T20:48:42.995Z,98088.03
2022-10-26T20:53:50.094Z,98093.41
2022-10-26T20:58:55.709Z,98063.44
2022-10-26T21:03:59.619Z,98039.63
2022-10-26T21:09:02.190Z,98036.13
2022-10-26T21:14:06.354Z,98022.94
2022-10-26T21:19:08.915Z,97972.69
2022-10-26T21:24:11.585Z,97979.84
2022-10-26T21:29:15.475Z,97928.69
2022-10-26T21:34:18.031Z,97888.16
2022-10-26T21:39:20.610Z,97876.69
2022-10-26T21:44:40.025Z,97874.94
2022-10-26T21:49:43.521Z,97890.00
2022-10-26T21:54:46.167Z,97904.16
2022-10-26T21:59:50.480Z,97883.97
2022-10-26T22:04:53.181Z,97860.22
2022-10-26T22:10:10.337Z,97795.88
2022-10-26T22:15:14.735Z,97823.28
2022-10-26T22:20:17.406Z,97770.38
2022-10-26T22:25:19.953Z,97733.38
2022-10-26T22:30:23.902Z,97728.19
2022-10-26T22:35:30.056Z,97684.16
2022-10-26T22:40:32.859Z,97649.84
2022-10-26T22:45:36.726Z,97623.53
2022-10-26T22:50:39.385Z,97561.91
2022-10-26T22:55:42.579Z,97526.72
2022-10-26T23:00:46.555Z,97484.50
2022-10-26T23:05:49.405Z,97387.56
2022-10-26T23:10:52.001Z,97357.69
2022-10-26T23:15:55.983Z,97193.19
2022-10-26T23:20:58.672Z,97240.16
2022-10-26T23:26:01.744Z,97147.50
2022-10-26T23:31:06.118Z,97095.75
2022-10-26T23:36:08.775Z,97117.84
2022-10-26T23:41:12.963Z,97070.28
2022-10-26T23:46:17.236Z,97014.78
2022-10-26T23:51:19.857Z,96990.22
2022-10-26T23:56:22.395Z,96968.25
